Time,TemperatureF,DewpointF,PressureIn,WindDirection,WindDirectionDegrees,WindSpeedMPH,WindSpeedGustMPH,Humidity,HourlyPrecipIn,Conditions,Clouds,dailyrainin,SoftwareType,DateUTC
2013-05-22 00:00:00,56.0,14.3,30.03,NW,315,0.0,0.0,19,0.00,CLR,,0.00,WeatherDisplay:10.37,2013-05-22 07:00:00,
2013-05-22 00:10:00,55.0,23.3,30.04,NW,315,3.0,6.0,29,0.00,CLR,,0.00,WeatherDisplay:10.37,2013-05-22 07:10:00,
2013-05-22 00:20:00,55.0,16.8,30.04,NW,305,0.0,7.0,22,0.00,CLR,,0.00,WeatherDisplay:10.37,2013-05-22 07:20:00,
2013-05-22 00:30:00,55.0,13.4,30.04,WNW,302,3.0,9.0,19,0.00,CLR,,0.00,WeatherDisplay:10.37,2013-05-22 07:30:00,
2013-05-22 00:40:00,55.0,13.4,30.04,NW,315,1.0,3.0,19,0.00,CLR,,0.00,WeatherDisplay:10.37,2013-05-22 07:40:00,
2013-05-22 00:50:00,56.0,14.3,30.03,NW,315,3.0,4.0,19,0.00,CLR,,0.00,WeatherDisplay:10.37,2013-05-22 07:50:00,
2013-05-22 01:00:00,55.0,13.4,30.03,NW,315,3.0,5.0,19,0.00,CLR,,0.00,WeatherDisplay:10.37,2013-05-22 08:00:00,
2013-05-22 01:10:00,54.0,13.8,30.03,NW,315,2.0,4.0,20,0.00,CLR,,0.00,WeatherDisplay:10.37,2013-05-22 08:10:00,
2013-05-22 01:20:00,54.0,14.9,30.03,NW,315,2.0,4.0,21,0.00,CLR,,0.00,WeatherDisplay:10.37,2013-05-22 08:20:00,
2013-05-22 01:30:00,54.0,14.9,30.04,NW,315,2.0,4.0,21,0.00,CLR,,0.00,WeatherDisplay:10.37,2013-05-22 08:30:00,
2013-05-22 01:40:00,54.0,14.9,30.04,NW,315,0.0,5.0,21,0.00,CLR,,0.00,WeatherDisplay:10.37,2013-05-22 08:40:00,
2013-05-22 01:50:00,52.0,14.3,30.04,NNW,329,2.0,4.0,22,0.00,CLR,,0.00,WeatherDisplay:10.37,2013-05-22 08:50:00,
2013-05-22 02:00:00,52.0,13.2,30.05,NNW,337,2.0,4.0,21,0.00,CLR,,0.00,WeatherDisplay:10.37,2013-05-22 09:00:00,
2013-05-22 02:10:00,52.0,13.2,30.05,NNW,337,0.0,3.0,21,0.00,CLR,,0.00,WeatherDisplay:10.37,2013-05-22 09:10:00,
2013-05-22 02:20:00,51.0,11.3,30.05,NNW,337,6.0,6.0,20,0.00,CLR,,0.00,WeatherDisplay:10.37,2013-05-22 09:20:00,
2013-05-22 02:30:00,51.0,11.3,30.06,NNW,337,1.0,4.0,20,0.00,CLR,,0.00,WeatherDisplay:10.37,2013-05-22 09:30:00,
2013-05-22 02:40:00,51.0,12.4,30.06,North,355,3.0,5.0,21,0.00,CLR,,0.00,WeatherDisplay:10.37,2013-05-22 09:40:00,
2013-05-22 02:50:00,52.0,15.3,30.06,NW,319,3.0,6.0,23,0.00,CLR,,0.00,WeatherDisplay:10.37,2013-05-22 09:50:00,
2013-05-22 03:00:00,53.0,17.1,30.05,NNW,341,3.0,5.0,24,0.00,CLR,,0.00,WeatherDisplay:10.37,2013-05-22 10:00:00,
2013-05-22 03:10:00,53.0,18.1,30.05,North,360,0.0,6.0,25,0.00,CLR,,0.00,WeatherDisplay:10.37,2013-05-22 10:10:00,
2013-05-22 03:20:00,52.0,16.3,30.05,North,360,0.0,3.0,24,0.00,CLR,,0.00,WeatherDisplay:10.37,2013-05-22 10:20:00,
2013-05-22 03:30:00,52.0,15.3,30.05,North,360,0.0,3.0,23,0.00,CLR,,0.00,WeatherDisplay:10.37,2013-05-22 10:30:00,
2013-05-22 03:40:00,51.0,13.4,30.05,North,360,2.0,3.0,22,0.00,CLR,,0.00,WeatherDisplay:10.37,2013-05-22 10:40:00,
2013-05-22 03:50:00,51.0,13.4,30.06,North,360,3.0,5.0,22,0.00,CLR,,0.00,WeatherDisplay:10.37,2013-05-22 10:50:00,
2013-05-22 04:00:00,51.0,13.4,30.06,North,360,0.0,4.0,22,0.00,CLR,,0.00,WeatherDisplay:10.37,2013-05-22 11:00:00,
2013-05-22 04:10:00,50.0,12.6,30.06,North,360,0.0,0.0,22,0.00,CLR,,0.00,WeatherDisplay:10.37,2013-05-22 11:10:00,
2013-05-22 04:20:00,49.0,12.7,30.06,North,360,0.0,2.0,23,0.00,CLR,,0.00,WeatherDisplay:10.37,2013-05-22 11:20:00,
2013-05-22 04:30:00,48.0,11.9,30.07,North,360,3.0,6.0,23,0.00,CLR,,0.00,WeatherDisplay:10.37,2013-05-22 11:30:00,
2013-05-22 04:40:00,48.0,11.9,30.07,North,360,0.0,3.0,23,0.00,CLR,,0.00,WeatherDisplay:10.37,2013-05-22 11:40:00,
2013-05-22 04:50:00,48.0,11.9,30.07,North,360,0.0,4.0,23,0.00,CLR,,0.00,WeatherDisplay:10.37,2013-05-22 11:50:00,
2013-05-22 05:00:00,48.0,11.9,30.07,North,360,0.0,3.0,23,0.00,CLR,,0.00,WeatherDisplay:10.37,2013-05-22 12:00:00,
2013-05-22 05:10:00,47.0,11.1,30.07,North,360,0.0,0.0,23,0.00,CLR,,0.00,WeatherDisplay:10.37,2013-05-22 12:10:00,
2013-05-22 05:20:00,47.0,12.0,30.07,North,360,0.0,3.0,24,0.00,CLR,,0.00,WeatherDisplay:10.37,2013-05-22 12:20:00,
2013-05-22 05:30:00,47.0,12.0,30.08,North,360,0.0,0.0,24,0.00,CLR,,0.00,WeatherDisplay:10.37,2013-05-22 12:30:00,
2013-05-22 05:40:00,47.0,12.0,30.08,North,360,3.0,5.0,24,0.00,CLR,,0.00,WeatherDisplay:10.37,2013-05-22 12:40:00,
2013-05-22 05:50:00,51.0,13.4,30.07,North,360,1.0,5.0,22,0.00,CLR,,0.00,WeatherDisplay:10.37,2013-05-22 12:50:00,
2013-05-22 06:00:00,53.0,15.1,30.06,North,350,0.0,7.0,22,0.00,CLR,,0.00,WeatherDisplay:10.37,2013-05-22 13:00:00,
2013-05-22 06:10:00,53.0,16.1,30.05,South,180,0.0,4.0,23,0.00,CLR,,0.00,WeatherDisplay:10.37,2013-05-22 13:10:00,
2013-05-22 06:20:00,54.6,17.5,30.06,South,180,0.0,2.0,23,0.00,CLR,,0.00,WeatherDisplay:10.37,2013-05-22 13:20:00,
2013-05-22 06:30:00,56.0,21.6,30.05,South,180,0.0,3.0,26,0.00,CLR,,0.00,WeatherDisplay:10.37,2013-05-22 13:30:00,
2013-05-22 06:40:00,58.0,23.3,30.04,South,180,0.0,2.0,26,0.00,CLR,,0.00,WeatherDisplay:10.37,2013-05-22 13:40:00,
2013-05-22 06:50:00,60.0,21.0,30.04,South,180,0.0,0.0,22,0.00,CLR,,0.00,WeatherDisplay:10.37,2013-05-22 13:50:00,
2013-05-22 07:00:00,63.0,21.2,30.03,South,180,0.0,0.0,20,0.00,CLR,,0.00,WeatherDisplay:10.37,2013-05-22 14:00:00,
2013-05-22 07:10:00,65.0,21.7,30.01,SSE,157,0.0,0.0,19,0.00,CLR,,0.00,WeatherDisplay:10.37,2013-05-22 14:10:00,
2013-05-22 07:20:00,65.7,22.2,30.01,ESE,116,2.0,4.0,19,0.00,CLR,,0.00,WeatherDisplay:10.37,2013-05-22 14:20:00,
2013-05-22 07:30:00,67.0,22.1,30.01,NE,45,1.0,4.0,18,0.00,CLR,,0.00,WeatherDisplay:10.37,2013-05-22 14:30:00,
2013-05-22 07:40:00,69.0,22.3,30.00,NE,45,0.0,3.0,17,0.00,CLR,,0.00,WeatherDisplay:10.37,2013-05-22 14:40:00,
2013-05-22 07:50:00,71.0,22.5,29.99,ENE,61,0.0,3.0,16,0.00,CLR,,0.00,WeatherDisplay:10.37,2013-05-22 14:50:00,
2013-05-22 08:00:00,73.0,22.6,29.99,ENE,73,0.0,2.0,15,0.00,CLR,,0.00,WeatherDisplay:10.37,2013-05-22 15:00:00,
2013-05-22 08:10:00,74.0,23.4,29.99,South,171,0.0,5.0,15,0.00,CLR,,0.00,WeatherDisplay:10.37,2013-05-22 15:10:00,
2013-05-22 08:20:00,76.0,21.6,29.98,ESE,119,1.0,5.0,13,0.00,CLR,,0.00,WeatherDisplay:10.37,2013-05-22 15:20:00,
2013-05-22 08:30:00,76.0,21.6,29.97,South,185,3.0,5.0,13,0.00,CLR,,0.00,WeatherDisplay:10.37,2013-05-22 15:30:00,
2013-05-22 08:40:00,76.0,19.7,29.97,SSW,201,5.0,6.0,12,0.00,CLR,,0.00,WeatherDisplay:10.37,2013-05-22 15:40:00,
2013-05-22 08:50:00,77.0,20.5,29.97,South,191,2.0,7.0,12,0.00,CLR,,0.00,WeatherDisplay:10.37,2013-05-22 15:50:00,
2013-05-22 09:00:00,79.0,20.0,29.97,SSW,196,6.0,7.0,11,0.00,CLR,,0.00,WeatherDisplay:10.37,2013-05-22 16:00:00,
2013-05-22 09:10:00,80.0,20.7,29.96,SSW,206,5.0,9.0,11,0.00,CLR,,0.00,WeatherDisplay:10.37,2013-05-22 16:10:00,
2013-05-22 09:20:00,80.0,20.7,29.96,South,190,6.0,8.0,11,0.00,CLR,,0.00,WeatherDisplay:10.37,2013-05-22 16:20:00,
2013-05-22 09:30:00,82.0,22.3,29.95,South,185,5.0,7.0,11,0.00,CLR,,0.00,WeatherDisplay:10.37,2013-05-22 16:30:00,
2013-05-22 09:40:00,82.4,20.3,29.95,SSE,161,6.0,9.0,10,0.00,CLR,,0.00,WeatherDisplay:10.37,2013-05-22 16:40:00,
2013-05-22 09:50:00,83.0,20.8,29.94,SE,136,1.0,7.0,10,0.00,CLR,,0.00,WeatherDisplay:10.37,2013-05-22 16:50:00,
2013-05-22 10:00:00,84.0,21.5,29.94,South,174,3.0,9.0,10,0.00,CLR,,0.00,WeatherDisplay:10.37,2013-05-22 17:00:00,
2013-05-22 10:10:00,84.0,21.5,29.93,SSE,163,3.0,10.0,10,0.00,CLR,,0.00,WeatherDisplay:10.37,2013-05-22 17:10:00,
2013-05-22 10:20:00,85.0,22.3,29.94,SSE,154,5.0,10.0,10,0.00,CLR,,0.00,WeatherDisplay:10.37,2013-05-22 17:20:00,
2013-05-22 10:30:00,84.0,21.5,29.93,WSW,249,1.0,9.0,10,0.00,CLR,,0.00,WeatherDisplay:10.37,2013-05-22 17:30:00,
2013-05-22 10:40:00,85.0,22.3,29.93,South,179,6.0,10.0,10,0.00,CLR,,0.00,WeatherDisplay:10.37,2013-05-22 17:40:00,
2013-05-22 10:50:00,84.0,23.8,29.93,SSW,199,3.0,14.0,11,0.00,CLR,,0.00,WeatherDisplay:10.37,2013-05-22 17:50:00,
2013-05-22 11:00:00,86.0,23.1,29.93,SE,142,1.0,7.0,10,0.00,CLR,,0.00,WeatherDisplay:10.37,2013-05-22 18:00:00,
2013-05-22 11:10:00,85.6,25.1,29.92,South,183,1.0,12.0,11,0.00,CLR,,0.00,WeatherDisplay:10.37,2013-05-22 18:10:00,
2013-05-22 11:20:00,86.0,23.1,29.92,SSE,163,2.0,12.0,10,0.00,CLR,,0.00,WeatherDisplay:10.37,2013-05-22 18:20:00,
2013-05-22 11:30:00,85.0,22.3,29.91,South,191,8.0,9.0,10,0.00,CLR,,0.00,WeatherDisplay:10.37,2013-05-22 18:30:00,
2013-05-22 11:40:00,84.0,23.8,29.92,SW,227,6.0,10.0,11,0.00,CLR,,0.00,WeatherDisplay:10.37,2013-05-22 18:40:00,
2013-05-22 11:50:00,85.0,24.6,29.92,South,180,6.0,10.0,11,0.00,CLR,,0.00,WeatherDisplay:10.37,2013-05-22 18:50:00,
2013-05-22 12:00:00,85.0,24.6,29.92,South,184,6.0,10.0,11,0.00,CLR,,0.00,WeatherDisplay:10.37,2013-05-22 19:00:00,
2013-05-22 12:10:00,85.0,24.6,29.91,West,266,3.0,10.0,11,0.00,CLR,,0.00,WeatherDisplay:10.37,2013-05-22 19:10:00,
2013-05-22 12:20:00,87.0,23.8,29.90,SW,215,5.0,10.0,10,0.00,CLR,,0.00,WeatherDisplay:10.37,2013-05-22 19:20:00,
2013-05-22 12:30:00,86.0,23.1,29.89,SW,234,6.0,13.0,10,0.00,CLR,,0.00,WeatherDisplay:10.37,2013-05-22 19:30:00,
2013-05-22 12:40:00,88.0,22.1,29.89,SSE,151,5.0,10.0,9,0.00,CLR,,0.00,WeatherDisplay:10.37,2013-05-22 19:40:00,
2013-05-22 12:50:00,88.0,22.1,29.87,South,187,7.0,13.0,9,0.00,CLR,,0.00,WeatherDisplay:10.37,2013-05-22 19:50:00,
2013-05-22 13:00:00,88.0,22.1,29.88,SE,142,3.0,7.0,9,0.00,CLR,,0.00,WeatherDisplay:10.37,2013-05-22 20:00:00,
2013-05-22 13:10:00,88.0,22.1,29.87,SSW,199,5.0,12.0,9,0.00,CLR,,0.00,WeatherDisplay:10.37,2013-05-22 20:10:00,
2013-05-22 13:20:00,88.0,19.3,29.87,SSW,202,7.0,14.0,8,0.00,CLR,,0.00,WeatherDisplay:10.37,2013-05-22 20:20:00,
2013-05-22 13:30:00,87.0,18.6,29.87,SSW,207,10.0,14.0,8,0.00,CLR,,0.00,WeatherDisplay:10.37,2013-05-22 20:30:00,
2013-05-22 13:40:00,87.0,21.3,29.87,SSW,206,5.0,13.0,9,0.00,CLR,,0.00,WeatherDisplay:10.37,2013-05-22 20:40:00,
2013-05-22 13:50:00,88.0,19.3,29.87,SW,235,9.0,13.0,8,0.00,CLR,,0.00,WeatherDisplay:10.37,2013-05-22 20:50:00,
2013-05-22 14:00:00,88.0,19.3,29.87,SW,232,6.0,12.0,8,0.00,CLR,,0.00,WeatherDisplay:10.37,2013-05-22 21:00:00,
2013-05-22 14:10:00,89.0,20.0,29.86,SW,225,6.0,10.0,8,0.00,CLR,,0.00,WeatherDisplay:10.37,2013-05-22 21:10:00,
2013-05-22 14:20:00,90.6,21.2,29.85,SSW,204,7.0,9.0,8,0.00,CLR,,0.00,WeatherDisplay:10.37,2013-05-22 21:20:00,
2013-05-22 14:30:00,90.0,20.8,29.83,SW,221,10.0,13.0,8,0.00,CLR,,0.00,WeatherDisplay:10.37,2013-05-22 21:30:00,
2013-05-22 14:40:00,90.0,17.7,29.84,SSW,210,6.0,12.0,7,0.00,CLR,,0.00,WeatherDisplay:10.37,2013-05-22 21:40:00,
2013-05-22 14:50:00,90.0,17.7,29.83,SW,215,10.0,16.0,7,0.00,CLR,,0.00,WeatherDisplay:10.37,2013-05-22 21:50:00,
2013-05-22 15:00:00,89.0,16.9,29.84,WSW,246,3.0,10.0,7,0.00,CLR,,0.00,WeatherDisplay:10.37,2013-05-22 22:00:00,
2013-05-22 15:10:00,90.0,17.7,29.83,SSW,212,8.0,13.0,7,0.00,CLR,,0.00,WeatherDisplay:10.37,2013-05-22 22:10:00,
2013-05-22 15:20:00,90.0,17.7,29.83,WSW,246,7.0,13.0,7,0.00,CLR,,0.00,WeatherDisplay:10.37,2013-05-22 22:20:00,
2013-05-22 15:30:00,90.0,17.7,29.82,SSW,205,8.0,13.0,7,0.00,CLR,,0.00,WeatherDisplay:10.37,2013-05-22 22:30:00,
2013-05-22 15:40:00,90.0,17.7,29.82,WSW,244,7.0,15.0,7,0.00,CLR,,0.00,WeatherDisplay:10.37,2013-05-22 22:40:00,
2013-05-22 15:50:00,91.0,18.4,29.81,SSW,195,1.0,10.0,7,0.00,CLR,,0.00,WeatherDisplay:10.37,2013-05-22 22:50:00,
2013-05-22 16:00:00,92.0,15.5,29.81,SW,214,9.0,16.0,6,0.00,CLR,,0.00,WeatherDisplay:10.37,2013-05-22 23:00:00,
2013-05-22 16:10:00,91.0,18.4,29.80,WSW,239,9.0,14.0,7,0.00,CLR,,0.00,WeatherDisplay:10.37,2013-05-22 23:10:00,
2013-05-22 16:20:00,91.0,18.4,29.80,SSW,206,7.0,12.0,7,0.00,CLR,,0.00,WeatherDisplay:10.37,2013-05-22 23:20:00,
2013-05-22 16:30:00,91.0,14.8,29.80,SSW,213,7.0,12.0,6,0.00,CLR,,0.00,WeatherDisplay:10.37,2013-05-22 23:30:00,
2013-05-22 16:40:00,91.0,14.8,29.80,SSW,205,9.0,13.0,6,0.00,CLR,,0.00,WeatherDisplay:10.37,2013-05-22 23:40:00,
2013-05-22 16:50:00,91.0,18.4,29.79,SSW,196,8.0,13.0,7,0.00,CLR,,0.00,WeatherDisplay:10.37,2013-05-22 23:50:00,
2013-05-22 17:00:00,91.0,18.4,29.79,SSW,198,10.0,15.0,7,0.00,CLR,,0.00,WeatherDisplay:10.37,2013-05-23 00:00:00,
2013-05-22 17:10:00,90.0,17.7,29.79,SSW,207,8.0,15.0,7,0.00,CLR,,0.00,WeatherDisplay:10.37,2013-05-23 00:10:00,
2013-05-22 17:20:00,90.0,17.7,29.80,South,190,6.0,12.0,7,0.00,CLR,,0.00,WeatherDisplay:10.37,2013-05-23 00:20:00,
2013-05-22 17:30:00,89.0,16.9,29.79,SSW,211,9.0,14.0,7,0.00,CLR,,0.00,WeatherDisplay:10.37,2013-05-23 00:30:00,
2013-05-22 17:40:00,89.0,16.9,29.81,SW,216,7.0,12.0,7,0.00,CLR,,0.00,WeatherDisplay:10.37,2013-05-23 00:40:00,
2013-05-22 17:50:00,89.0,20.0,29.81,SSW,209,8.0,12.0,8,0.00,CLR,,0.00,WeatherDisplay:10.37,2013-05-23 00:50:00,
2013-05-22 18:00:00,88.0,16.2,29.81,SW,235,9.0,15.0,7,0.00,CLR,,0.00,WeatherDisplay:10.37,2013-05-23 01:00:00,
2013-05-22 18:10:00,88.0,19.3,29.81,SW,219,10.0,17.0,8,0.00,CLR,,0.00,WeatherDisplay:10.37,2013-05-23 01:10:00,
2013-05-22 18:20:00,87.0,18.6,29.82,SW,223,12.0,15.0,8,0.00,CLR,,0.00,WeatherDisplay:10.37,2013-05-23 01:20:00,
2013-05-22 18:30:00,86.0,17.8,29.82,SW,222,9.0,14.0,8,0.00,CLR,,0.00,WeatherDisplay:10.37,2013-05-23 01:30:00,
2013-05-22 18:40:00,86.0,17.8,29.83,SW,226,9.0,14.0,8,0.00,CLR,,0.00,WeatherDisplay:10.37,2013-05-23 01:40:00,
2013-05-22 18:50:00,85.0,17.1,29.83,SW,224,10.0,14.0,8,0.00,CLR,,0.00,WeatherDisplay:10.37,2013-05-23 01:50:00,
2013-05-22 19:00:00,83.4,18.6,29.84,SW,222,10.0,15.0,9,0.00,CLR,,0.00,WeatherDisplay:10.37,2013-05-23 02:00:00,
2013-05-22 19:10:00,82.0,17.6,29.85,SW,225,8.0,12.0,9,0.00,CLR,,0.00,WeatherDisplay:10.37,2013-05-23 02:10:00,
2013-05-22 19:20:00,81.0,16.8,29.86,SW,225,7.0,12.0,9,0.00,CLR,,0.00,WeatherDisplay:10.37,2013-05-23 02:20:00,
2013-05-22 19:30:00,80.0,16.1,29.87,SW,225,7.0,10.0,9,0.00,CLR,,0.00,WeatherDisplay:10.37,2013-05-23 02:30:00,
2013-05-22 19:40:00,79.0,17.7,29.87,SW,223,6.0,9.0,10,0.00,CLR,,0.00,WeatherDisplay:10.37,2013-05-23 02:40:00,
2013-05-22 19:50:00,78.0,19.2,29.88,SW,223,6.0,9.0,11,0.00,CLR,,0.00,WeatherDisplay:10.37,2013-05-23 02:50:00,
2013-05-22 20:00:00,76.0,17.6,29.89,SW,225,5.0,7.0,11,0.00,CLR,,0.00,WeatherDisplay:10.37,2013-05-23 03:00:00,
2013-05-22 20:10:00,75.6,19.4,29.90,SW,227,7.0,9.0,12,0.00,CLR,,0.00,WeatherDisplay:10.37,2013-05-23 03:10:00,
2013-05-22 20:20:00,76.0,17.6,29.90,SW,222,8.0,12.0,11,0.00,CLR,,0.00,WeatherDisplay:10.37,2013-05-23 03:20:00,
2013-05-22 20:30:00,77.0,18.4,29.89,SW,223,8.0,12.0,11,0.00,CLR,,0.00,WeatherDisplay:10.37,2013-05-23 03:30:00,
2013-05-22 20:40:00,76.4,17.9,29.89,SW,224,8.0,12.0,11,0.00,CLR,,0.00,WeatherDisplay:10.37,2013-05-23 03:40:00,
2013-05-22 20:50:00,76.0,17.6,29.90,SW,223,8.0,12.0,11,0.00,CLR,,0.00,WeatherDisplay:10.37,2013-05-23 03:50:00,
2013-05-22 21:00:00,76.0,17.6,29.91,SW,222,8.0,12.0,11,0.00,CLR,,0.00,WeatherDisplay:10.37,2013-05-23 04:00:00,
2013-05-22 21:10:00,75.4,19.2,29.91,SW,224,6.0,9.0,12,0.00,CLR,,0.00,WeatherDisplay:10.37,2013-05-23 04:10:00,
2013-05-22 21:20:00,74.0,20.0,29.92,SSW,209,6.0,8.0,13,0.00,CLR,,0.00,WeatherDisplay:10.37,2013-05-23 04:20:00,
2013-05-22 21:30:00,73.0,20.9,29.93,SSW,206,6.0,9.0,14,0.00,CLR,,0.00,WeatherDisplay:10.37,2013-05-23 04:30:00,
2013-05-22 21:40:00,71.0,22.5,29.94,SSW,201,6.0,9.0,16,0.00,CLR,,0.00,WeatherDisplay:10.37,2013-05-23 04:40:00,
2013-05-22 21:50:00,70.0,23.1,29.95,SSW,204,5.0,7.0,17,0.00,CLR,,0.00,WeatherDisplay:10.37,2013-05-23 04:50:00,
2013-05-22 22:00:00,71.0,21.0,29.96,SW,224,7.0,9.0,15,0.00,CLR,,0.00,WeatherDisplay:10.37,2013-05-23 05:00:00,
2013-05-22 22:10:00,72.0,21.8,29.95,SW,214,6.0,9.0,15,0.00,CLR,,0.00,WeatherDisplay:10.37,2013-05-23 05:10:00,
2013-05-22 22:20:00,69.0,20.9,29.95,South,187,0.0,3.0,16,0.00,CLR,,0.00,WeatherDisplay:10.37,2013-05-23 05:20:00,
2013-05-22 22:30:00,66.0,21.2,29.97,SSE,157,0.0,3.0,18,0.00,CLR,,0.00,WeatherDisplay:10.37,2013-05-23 05:30:00,
2013-05-22 22:40:00,66.0,21.2,29.98,ESE,113,0.0,6.0,18,0.00,CLR,,0.00,WeatherDisplay:10.37,2013-05-23 05:40:00,
2013-05-22 22:50:00,66.0,21.2,29.98,ESE,112,0.0,7.0,18,0.00,CLR,,0.00,WeatherDisplay:10.37,2013-05-23 05:50:00,
2013-05-22 23:00:00,65.0,20.4,29.97,ESE,112,0.0,5.0,18,0.00,CLR,,0.00,WeatherDisplay:10.37,2013-05-23 06:00:00,
2013-05-22 23:10:00,63.0,18.8,29.98,ESE,112,0.0,1.0,18,0.00,CLR,,0.00,WeatherDisplay:10.37,2013-05-23 06:10:00,
2013-05-22 23:20:00,63.0,20.0,29.99,ESE,112,0.0,3.0,19,0.00,CLR,,0.00,WeatherDisplay:10.37,2013-05-23 06:20:00,
2013-05-22 23:30:00,61.4,18.7,29.99,SSW,209,0.0,4.0,19,0.00,CLR,,0.00,WeatherDisplay:10.37,2013-05-23 06:30:00,
2013-05-22 23:40:00,60.0,19.9,30.00,SW,225,0.0,2.0,21,0.00,CLR,,0.00,WeatherDisplay:10.37,2013-05-23 06:40:00,
2013-05-22 23:50:00,59.0,19.1,30.01,SW,225,0.0,0.0,21,0.00,CLR,,0.00,WeatherDisplay:10.37,2013-05-23 06:50:00,